Time;durP1;ratioP1;P1;durP2;ratioP2;P2;SDS_P1;SDS_P2;PMS_P1;PMS_P2;Temp;Humidity;BMP_temperature;BMP_pressure;BME280_temperature;BME280_humidity;BME280_pressure;Samples;Min_cycle;Max_cycle;Signal;HPM_P1;HPM_P2
2022/08/30 00:01:05;;;;;;;925.13;862.72;;;;;;;19.07;67.95;101613.84;695601;28;137669;-63
2022/08/30 00:01:29;;;;;;;939.17;876.33;;;;;;;19.04;68.20;101615.13;696378;28;160655;-63
2022/08/30 00:01:50;;;;;;;923.35;861.13;;;;;;;19.03;67.99;101613.44;698018;28;90648;-63
2022/08/30 00:02:11;;;;;;;932.65;869.97;;;;;;;19.02;68.22;101619.97;698516;28;22538;-63
2022/08/30 00:02:33;;;;;;;944.95;881.92;;;;;;;19.02;68.10;101622.72;697483;28;45259;-63
2022/08/30 00:02:55;;;;;;;933.13;870.47;;;;;;;19.00;68.23;101615.78;697384;28;44375;-63
2022/08/30 00:03:16;;;;;;;937.38;874.60;;;;;;;18.96;68.32;101615.34;697384;28;44377;-64
2022/08/30 00:03:41;;;;;;;950.63;887.50;;;;;;;19.00;68.30;101613.88;698442;28;23546;-63
2022/08/30 00:04:07;;;;;;;930.03;867.63;;;;;;;18.98;68.38;101618.72;693444;28;115686;-63
2022/08/30 00:04:28;;;;;;;934.50;871.97;;;;;;;18.97;68.32;101614.28;693536;28;114976;-63
2022/08/30 00:04:49;;;;;;;936.03;873.42;;;;;;;18.97;68.45;101627.97;694524;28;46598;-63
2022/08/30 00:05:12;;;;;;;939.05;876.22;;;;;;;18.94;68.36;101617.44;695251;28;23196;-63
2022/08/30 00:05:34;;;;;;;933.33;870.67;;;;;;;18.94;68.21;101627.56;695509;28;44338;-63
2022/08/30 00:05:55;;;;;;;922.72;860.40;;;;;;;18.91;68.39;101615.13;697359;28;46221;-63
2022/08/30 00:06:18;;;;;;;935.35;872.60;;;;;;;18.89;68.50;101623.56;697526;28;44380;-63
2022/08/30 00:06:40;;;;;;;945.42;882.38;;;;;;;18.88;68.29;101616.38;696843;28;69429;-63
2022/08/30 00:07:02;;;;;;;944.05;880.47;;;;;;;18.88;68.42;101616.38;695059;28;46277;-63
2022/08/30 00:07:24;;;;;;;938.28;874.85;;;;;;;18.86;68.45;101623.16;694413;28;45062;-63
2022/08/30 00:07:45;;;;;;;932.45;869.67;;;;;;;18.85;68.49;101624.19;695472;28;23487;-63
2022/08/30 00:08:06;;;;;;;937.65;874.70;;;;;;;18.83;68.45;101620.78;694483;28;45103;-63
2022/08/30 00:08:29;;;;;;;931.70;869.10;;;;;;;18.83;68.53;101627.09;695362;28;23029;-63
2022/08/30 00:08:51;;;;;;;931.20;868.55;;;;;;;18.79;68.61;101616.78;694274;28;69133;-63
2022/08/30 00:09:12;;;;;;;937.63;874.70;;;;;;;18.81;68.57;101623.75;697315;28;46403;-63
2022/08/30 00:09:34;;;;;;;932.70;870.03;;;;;;;18.81;68.62;101628.34;698062;28;22239;-63
2022/08/30 00:09:55;;;;;;;930.42;867.83;;;;;;;18.80;68.72;101630.25;698759;28;22184;-63
2022/08/30 00:10:17;;;;;;;926.72;864.17;;;;;;;18.79;68.86;101625.81;699284;28;44295;-63
2022/08/30 00:10:39;;;;;;;932.10;869.40;;;;;;;18.80;68.89;101623.97;699953;28;46302;-63
2022/08/30 00:11:01;;;;;;;938.63;875.70;;;;;;;18.79;68.95;101628.56;700366;28;45180;-63
2022/08/30 00:11:24;;;;;;;938.70;875.78;;;;;;;18.79;68.75;101634.03;700255;28;46241;-63
2022/08/30 00:11:47;;;;;;;945.75;882.55;;;;;;;18.79;69.01;101633.22;698719;27;69492;-63
2022/08/30 00:12:08;;;;;;;939.03;875.92;;;;;;;18.79;69.01;101630.47;697484;28;67324;-63
2022/08/30 00:12:31;;;;;;;938.78;875.88;;;;;;;18.80;68.87;101623.97;698302;28;24311;-63
2022/08/30 00:12:52;;;;;;;933.28;870.53;;;;;;;18.78;68.81;101626.03;696092;28;67456;-63
2022/08/30 00:13:15;;;;;;;940.80;877.53;;;;;;;18.80;68.86;101632.16;698278;28;22414;-63
2022/08/30 00:13:37;;;;;;;938.08;875.22;;;;;;;18.80;68.99;101630.25;698432;28;46483;-63
2022/08/30 00:13:59;;;;;;;937.30;874.30;;;;;;;18.81;68.86;101626.47;697282;28;90778;-63
2022/08/30 00:14:20;;;;;;;937.22;874.33;;;;;;;18.79;68.90;101628.56;700136;28;46368;-63
2022/08/30 00:14:42;;;;;;;938.95;876.03;;;;;;;18.80;68.96;101630.25;701207;28;22417;-63
2022/08/30 00:15:05;;;;;;;948.10;884.75;;;;;;;18.80;69.07;101632.16;698433;28;44373;-63
2022/08/30 00:15:28;;;;;;;944.30;881.20;;;;;;;18.80;68.77;101633.00;693311;28;91954;-63
2022/08/30 00:15:49;;;;;;;945.28;882.05;;;;;;;18.80;68.86;101633.00;694614;28;46123;-63
2022/08/30 00:16:12;;;;;;;934.63;871.83;;;;;;;18.81;68.98;101631.09;695654;28;22400;-63
2022/08/30 00:16:33;;;;;;;948.75;885.47;;;;;;;18.79;68.92;101630.47;694235;28;68494;-63
2022/08/30 00:16:55;;;;;;;942.45;879.17;;;;;;;18.80;68.87;101627.53;696949;28;21535;-63
2022/08/30 00:17:18;;;;;;;943.00;879.35;;;;;;;18.80;69.14;101623.97;699167;28;44183;-63
2022/08/30 00:17:40;;;;;;;939.92;876.92;;;;;;;18.81;68.91;101631.09;699326;28;67461;-63
2022/08/30 00:18:01;;;;;;;932.85;870.20;;;;;;;18.81;68.97;101631.09;694760;28;44273;-63
2022/08/30 00:18:22;;;;;;;935.90;873.05;;;;;;;18.81;68.84;101633.81;695616;28;22435;-63
2022/08/30 00:18:44;;;;;;;940.97;878.10;;;;;;;18.81;68.83;101631.97;695220;28;45274;-63
2022/08/30 00:19:06;;;;;;;942.35;879.35;;;;;;;18.81;68.91;101631.09;698222;28;21409;-63
2022/08/30 00:19:27;;;;;;;943.38;880.50;;;;;;;18.80;68.70;101629.44;697642;28;46269;-63
2022/08/30 00:19:48;;;;;;;934.67;872.20;;;;;;;18.79;68.89;101635.94;698265;28;22342;-63
2022/08/30 00:20:12;;;;;;;935.20;872.47;;;;;;;18.78;68.95;101624.16;697472;28;46319;-63
2022/08/30 00:20:36;;;;;;;939.35;876.55;;;;;;;18.78;68.96;101631.50;699112;28;67464;-63
2022/08/30 00:20:57;;;;;;;936.40;873.67;;;;;;;18.77;68.91;101625.22;698874;28;91884;-63
2022/08/30 00:21:18;;;;;;;929.60;867.03;;;;;;;18.78;68.97;101626.03;700979;28;22162;-63
2022/08/30 00:21:40;;;;;;;943.90;880.90;;;;;;;18.78;69.07;101634.25;697859;28;46372;-63
2022/08/30 00:22:01;;;;;;;945.95;882.67;;;;;;;18.78;69.02;101623.31;700031;28;21527;-64
2022/08/30 00:22:23;;;;;;;936.58;873.40;;;;;;;18.79;69.08;101627.72;701042;28;22402;-63
2022/08/30 00:22:53;;;;;;;953.95;890.67;;;;;;;18.77;69.21;101627.94;699795;28;60106;-63
2022/08/30 00:23:15;;;;;;;944.13;881.03;;;;;;;18.78;69.27;101624.16;698010;28;23464;-63
2022/08/30 00:23:37;;;;;;;937.05;874.13;;;;;;;18.79;69.18;101627.72;697693;28;44364;-63
2022/08/30 00:23:59;;;;;;;936.95;874.13;;;;;;;18.80;69.10;101626.69;697275;28;44374;-63
2022/08/30 00:24:21;;;;;;;946.55;883.38;;;;;;;18.81;69.07;101631.97;696407;28;69797;-63
2022/08/30 00:24:42;;;;;;;930.20;867.63;;;;;;;18.82;69.16;101624.56;696832;28;22365;-63
2022/08/30 00:25:04;;;;;;;932.72;870.03;;;;;;;18.83;69.18;101629.84;695432;28;17953;-63
2022/08/30 00:25:27;;;;;;;936.42;873.53;;;;;;;18.84;69.01;101627.94;693785;28;69436;-63
2022/08/30 00:25:48;;;;;;;941.40;878.50;;;;;;;18.84;69.02;101633.41;694624;28;45252;-63
2022/08/30 00:26:09;;;;;;;934.67;871.88;;;;;;;18.88;68.92;101631.97;695292;28;23559;-63
2022/08/30 00:26:30;;;;;;;943.28;880.25;;;;;;;18.89;68.76;101633.69;694761;28;45214;-63
2022/08/30 00:26:53;;;;;;;951.28;887.97;;;;;;;18.90;68.65;101632.59;694095;28;23079;-63
2022/08/30 00:27:14;;;;;;;953.67;889.88;;;;;;;18.88;68.51;101631.97;691750;28;46482;-63
2022/08/30 00:27:35;;;;;;;950.22;886.80;;;;;;;18.91;68.62;101631.56;688925;28;44501;-63
2022/08/30 00:27:57;;;;;;;951.78;888.38;;;;;;;18.90;68.46;101635.34;691453;28;22465;-63
2022/08/30 00:28:19;;;;;;;941.63;878.55;;;;;;;18.89;68.43;101636.41;692544;28;23304;-63
2022/08/30 00:28:42;;;;;;;936.70;873.85;;;;;;;18.87;68.46;101630.28;691018;28;70458;-63
2022/08/30 00:29:04;;;;;;;935.60;872.85;;;;;;;18.83;68.28;101627.09;691712;28;69377;-63
2022/08/30 00:29:25;;;;;;;931.38;868.80;;;;;;;18.84;68.75;101636.16;693783;28;22491;-63
2022/08/30 00:29:47;;;;;;;931.53;868.92;;;;;;;18.83;68.43;101634.47;695360;28;22364;-63
2022/08/30 00:30:09;;;;;;;932.78;869.97;;;;;;;18.81;68.41;101628.34;698692;28;70431;-63
2022/08/30 00:30:31;;;;;;;933.45;870.72;;;;;;;18.78;68.28;101635.13;700152;28;44179;-63
2022/08/30 00:30:52;;;;;;;936.92;874.03;;;;;;;18.78;68.33;101640.59;699992;28;46163;-64
2022/08/30 00:31:14;;;;;;;927.25;864.75;;;;;;;18.76;68.52;101641.84;700934;28;21533;-63
2022/08/30 00:31:36;;;;;;;938.20;875.33;;;;;;;18.73;68.60;101635.75;700014;28;47445;-63
2022/08/30 00:31:57;;;;;;;935.83;872.92;;;;;;;18.71;68.57;101640.59;700223;28;23553;-63
2022/08/30 00:32:20;;;;;;;935.88;873.05;;;;;;;18.70;68.74;101633.41;698177;28;22483;-63
2022/08/30 00:32:41;;;;;;;932.85;870.08;;;;;;;18.69;68.59;101644.56;696704;28;70158;-63
2022/08/30 00:33:04;;;;;;;937.05;874.17;;;;;;;18.68;68.74;101642.88;697398;28;44366;-63
2022/08/30 00:33:25;;;;;;;931.40;868.80;;;;;;;18.66;68.79;101640.34;697214;28;46518;-63
2022/08/30 00:33:47;;;;;;;931.13;868.55;;;;;;;18.67;68.96;101638.47;698403;28;45252;-63
2022/08/30 00:34:08;;;;;;;927.08;864.72;;;;;;;18.66;68.96;101634.88;699533;28;45135;-62
2022/08/30 00:34:31;;;;;;;923.45;861.22;;;;;;;18.64;68.69;101639.72;695330;28;22778;-63
2022/08/30 00:34:53;;;;;;;930.40;867.92;;;;;;;18.64;68.89;101644.38;692933;28;69362;-63
2022/08/30 00:35:17;;;;;;;939.85;877.08;;;;;;;18.64;68.81;101647.09;695336;28;46932;-63
2022/08/30 00:35:38;;;;;;;943.13;880.25;;;;;;;18.64;69.07;101641.63;695646;28;92646;-63
2022/08/30 00:36:01;;;;;;;946.75;883.72;;;;;;;18.63;69.04;101645.41;692088;28;45204;-63
2022/08/30 00:36:22;;;;;;;942.75;879.70;;;;;;;18.62;69.13;101646.44;692842;28;69416;-63
2022/08/30 00:36:44;;;;;;;937.70;874.88;;;;;;;18.59;68.97;101639.53;697272;28;21162;-63
2022/08/30 00:37:05;;;;;;;936.95;873.47;;;;;;;18.62;69.20;101646.44;696472;28;44254;-63
2022/08/30 00:37:30;;;;;;;937.08;874.03;;;;;;;18.61;69.00;101642.88;698630;28;1339;-64
2022/08/30 00:37:51;;;;;;;933.35;870.70;;;;;;;18.59;69.11;101642.25;697259;28;45245;-63
2022/08/30 00:38:13;;;;;;;928.80;866.10;;;;;;;18.59;68.97;101642.25;695579;28;1425;-63
2022/08/30 00:38:34;;;;;;;927.00;864.55;;;;;;;18.58;69.04;101639.72;695602;28;46216;-63
2022/08/30 00:38:56;;;;;;;919.88;857.63;;;;;;;18.57;68.98;101638.88;697984;28;22396;-63
2022/08/30 00:39:17;;;;;;;942.40;879.30;;;;;;;18.58;69.16;101640.56;697176;28;44444;-63
2022/08/30 00:39:39;;;;;;;935.58;872.70;;;;;;;18.57;68.92;101644.34;697924;28;23464;-63
2022/08/30 00:40:01;;;;;;;931.17;868.47;;;;;;;18.57;68.90;101638.88;697248;28;46357;-64
2022/08/30 00:40:24;;;;;;;942.85;879.83;;;;;;;18.58;69.16;101642.47;697301;28;46307;-63
2022/08/30 00:40:45;;;;;;;948.38;885.20;;;;;;;18.57;69.17;101638.88;696709;28;67477;-63
2022/08/30 00:41:06;;;;;;;935.08;872.20;;;;;;;18.58;69.18;101643.28;697878;28;24463;-63
2022/08/30 00:41:27;;;;;;;940.38;877.33;;;;;;;18.58;69.14;101640.56;697291;28;22378;-63
2022/08/30 00:41:50;;;;;;;943.20;880.25;;;;;;;18.56;69.19;101639.94;697220;28;22210;-63
2022/08/30 00:42:12;;;;;;;931.13;868.40;;;;;;;18.57;69.13;101638.03;696387;28;69369;-63
2022/08/30 00:42:33;;;;;;;930.40;867.65;;;;;;;18.57;69.07;101638.88;697278;28;46338;-63
2022/08/30 00:42:55;;;;;;;935.78;872.85;;;;;;;18.57;69.21;101640.78;697372;28;22375;-64
2022/08/30 00:43:21;;;;;;;940.78;877.65;;;;;;;18.54;69.25;101639.28;697378;28;45215;-63
2022/08/30 00:43:44;;;;;;;946.97;883.67;;;;;;;18.57;69.15;101638.03;694338;28;138041;-63
2022/08/30 00:44:06;;;;;;;925.22;862.83;;;;;;;18.58;69.28;101637.81;697333;28;46304;-63
2022/08/30 00:44:27;;;;;;;934.63;871.88;;;;;;;18.59;69.30;101645.00;697802;28;46336;-63
2022/08/30 00:44:50;;;;;;;933.65;870.83;;;;;;;18.59;69.18;101636.78;700100;28;46311;-63
2022/08/30 00:45:15;;;;;;;935.45;872.63;;;;;;;18.58;69.10;101639.72;700343;28;44368;-63
2022/08/30 00:45:37;;;;;;;940.85;877.88;;;;;;;18.58;68.64;101639.72;697978;28;115066;-63
2022/08/30 00:45:58;;;;;;;932.95;870.25;;;;;;;18.57;69.05;101633.41;700230;28;45191;-64
2022/08/30 00:46:20;;;;;;;940.45;877.50;;;;;;;18.58;69.15;101637.00;700624;28;21522;-63
2022/08/30 00:46:42;;;;;;;937.65;874.78;;;;;;;18.57;69.05;101638.88;699443;28;68304;-63
2022/08/30 00:47:03;;;;;;;942.30;878.90;;;;;;;18.56;69.09;101639.94;697381;28;43310;-63
2022/08/30 00:47:24;;;;;;;942.72;879.33;;;;;;;18.54;69.09;101631.94;700641;28;21481;-63
2022/08/30 00:47:46;;;;;;;937.13;874.22;;;;;;;18.53;68.89;101637.63;699308;28;44371;-63
2022/08/30 00:48:08;;;;;;;922.78;860.42;;;;;;;18.52;69.04;101631.28;698235;28;23764;-63
2022/08/30 00:48:30;;;;;;;932.53;869.85;;;;;;;18.52;69.25;101634.03;696576;28;69261;-63
2022/08/30 00:48:51;;;;;;;923.17;860.83;;;;;;;18.51;69.49;101635.09;695484;28;21491;-63
2022/08/30 00:49:13;;;;;;;932.42;869.90;;;;;;;18.51;69.44;101637.81;694718;28;46347;-63
2022/08/30 00:49:36;;;;;;;934.25;871.75;;;;;;;18.53;69.63;101637.63;695609;28;21540;-63
2022/08/30 00:50:01;;;;;;;940.75;877.97;;;;;;;18.55;69.49;101643.72;694190;28;61602;-63
2022/08/30 00:50:25;;;;;;;942.10;879.28;;;;;;;18.55;69.50;101639.06;697475;28;22321;-63
2022/08/30 00:50:48;;;;;;;941.50;878.58;;;;;;;18.53;69.39;101627.50;695806;28;92392;-63
2022/08/30 00:51:12;;;;;;;930.92;868.33;;;;;;;18.58;69.25;101639.72;695849;28;92302;-63
2022/08/30 00:51:34;;;;;;;946.30;883.13;;;;;;;18.58;69.28;101635.09;695130;28;113603;-63
2022/08/30 00:51:56;;;;;;;943.83;880.63;;;;;;;18.58;69.27;101637.81;694828;28;45279;-63
2022/08/30 00:52:17;;;;;;;950.35;886.78;;;;;;;18.60;69.34;101638.44;695419;28;22215;-63
2022/08/30 00:52:41;;;;;;;938.85;875.92;;;;;;;18.60;69.41;101641.19;694528;28;44868;-63
2022/08/30 00:53:06;;;;;;;944.63;881.50;;;;;;;18.60;69.53;101632.97;692730;28;92495;-63
2022/08/30 00:53:31;;;;;;;930.85;868.05;;;;;;;18.61;69.24;101634.69;693260;28;115905;-63
2022/08/30 00:53:54;;;;;;;929.33;866.67;;;;;;;18.60;69.38;101638.44;697333;28;115160;-63
2022/08/30 00:54:25;;;;;;;943.15;879.92;;;;;;;18.62;69.10;101636.38;699319;28;59719;-63
2022/08/30 00:54:48;;;;;;;935.95;873.03;;;;;;;18.63;69.64;101639.94;699208;28;70606;-63
2022/08/30 00:55:13;;;;;;;935.42;872.55;;;;;;;18.64;69.36;101636.16;696719;28;92269;-63
2022/08/30 00:55:34;;;;;;;932.53;869.92;;;;;;;18.64;69.32;101639.72;695765;28;92106;-63
2022/08/30 00:55:56;;;;;;;936.63;873.80;;;;;;;18.65;69.25;101640.56;697506;28;23188;-63
2022/08/30 00:56:19;;;;;;;938.97;875.92;;;;;;;18.64;69.19;101636.16;696448;28;67315;-63
2022/08/30 00:56:40;;;;;;;936.17;873.33;;;;;;;18.65;69.26;101640.56;697092;28;45271;-63
2022/08/30 00:57:02;;;;;;;940.63;877.38;;;;;;;18.63;69.39;101629.00;696799;28;23493;-63
2022/08/30 00:57:23;;;;;;;953.15;889.42;;;;;;;18.67;69.28;101641.22;696384;28;45237;-63
2022/08/30 00:57:46;;;;;;;944.38;881.17;;;;;;;18.68;69.55;101637.41;697006;28;45248;-63
2022/08/30 00:58:10;;;;;;;941.92;878.72;;;;;;;18.69;69.02;101633.63;695957;28;69195;-63
2022/08/30 00:58:33;;;;;;;938.88;875.70;;;;;;;18.67;69.03;101641.22;697750;28;92759;-63
2022/08/30 00:58:57;;;;;;;940.95;878.00;;;;;;;18.70;68.99;101646.28;699219;28;68317;-63
2022/08/30 00:59:20;;;;;;;941.60;878.60;;;;;;;18.67;69.02;101644.78;698520;28;92236;-63
2022/08/30 00:59:43;;;;;;;940.63;877.65;;;;;;;18.68;68.91;101643.75;699478;28;69155;-63
2022/08/30 01:00:05;;;;;;;942.22;879.10;;;;;;;18.67;68.86;101636.56;699607;28;45271;-63
2022/08/30 01:00:27;;;;;;;928.65;866.00;;;;;;;18.67;68.86;101642.03;699436;28;67263;-63
2022/08/30 01:00:50;;;;;;;926.10;863.70;;;;;;;18.66;68.75;101637.63;700272;28;46286;-63
2022/08/30 01:01:12;;;;;;;941.53;878.53;;;;;;;18.64;68.99;101642.47;699408;28;69391;-63
2022/08/30 01:01:34;;;;;;;931.03;868.20;;;;;;;18.61;68.79;101640.16;699061;28;44403;-63
2022/08/30 01:01:57;;;;;;;925.58;863.03;;;;;;;18.61;68.95;101637.41;696688;28;45265;-63
2022/08/30 01:02:21;;;;;;;930.97;868.25;;;;;;;18.61;68.93;101634.69;697040;28;46391;-63
2022/08/30 01:02:42;;;;;;;927.50;865.00;;;;;;;18.58;68.96;101632.34;694764;28;115062;-63
2022/08/30 01:03:08;;;;;;;926.67;864.20;;;;;;;18.59;68.94;101634.06;698173;28;21493;-63
2022/08/30 01:03:31;;;;;;;937.20;874.22;;;;;;;18.58;69.04;101634.25;691403;28;136407;-63
2022/08/30 01:03:53;;;;;;;929.20;866.63;;;;;;;18.57;69.08;101635.28;693709;28;70279;-64
2022/08/30 01:04:14;;;;;;;935.42;872.78;;;;;;;18.57;69.15;101641.59;695474;28;23406;-64
2022/08/30 01:04:37;;;;;;;938.85;876.22;;;;;;;18.57;69.33;101635.28;694700;28;46264;-63
2022/08/30 01:05:01;;;;;;;936.17;873.50;;;;;;;18.55;69.12;101636.34;699936;28;17034;-63
2022/08/30 01:05:23;;;;;;;948.40;885.20;;;;;;;18.54;69.03;101636.53;698205;28;115134;-63
2022/08/30 01:05:45;;;;;;;937.20;874.40;;;;;;;18.56;69.41;101639.94;700954;28;22199;-67
2022/08/30 01:06:06;;;;;;;927.40;864.88;;;;;;;18.55;69.00;101643.72;700123;28;45230;-63
2022/08/30 01:06:29;;;;;;;930.60;867.97;;;;;;;18.54;69.26;101631.06;700682;28;23458;-63
2022/08/30 01:06:50;;;;;;;944.40;881.17;;;;;;;18.53;69.20;101635.72;698456;27;69384;-63
2022/08/30 01:07:11;;;;;;;946.50;882.80;;;;;;;18.52;69.13;101642.22;700204;28;22404;-63
2022/08/30 01:07:33;;;;;;;949.13;885.78;;;;;;;18.48;69.16;101640.97;701005;28;21486;-63
2022/08/30 01:07:56;;;;;;;944.20;881.10;;;;;;;18.50;69.06;101635.28;700078;28;46284;-63
2022/08/30 01:08:19;;;;;;;936.63;873.65;;;;;;;18.49;69.16;101645.38;693823;28;69477;-63
2022/08/30 01:08:40;;;;;;;934.17;871.38;;;;;;;18.49;69.38;101639.06;693962;28;67500;-63
2022/08/30 01:09:04;;;;;;;923.03;860.67;;;;;;;18.47;69.30;101643.91;695345;28;22322;-63
2022/08/30 01:09:25;;;;;;;929.15;866.58;;;;;;;18.46;69.24;101642.22;693088;28;91702;-63
2022/08/30 01:09:47;;;;;;;934.25;871.53;;;;;;;18.46;69.30;101647.69;696069;28;44378;-63
2022/08/30 01:10:10;;;;;;;943.83;880.67;;;;;;;18.43;69.17;101643.50;698249;28;22217;-63
2022/08/30 01:10:33;;;;;;;943.78;880.80;;;;;;;18.42;69.31;101650.00;696614;28;67142;-63
2022/08/30 01:10:56;;;;;;;943.97;880.95;;;;;;;18.42;69.37;101640.97;696668;28;67583;-63
2022/08/30 01:11:20;;;;;;;938.20;875.28;;;;;;;18.40;69.34;101640.31;696967;28;69494;-63
2022/08/30 01:11:43;;;;;;;930.47;867.92;;;;;;;18.39;69.24;101644.94;699161;28;78573;-63
2022/08/30 01:12:06;;;;;;;931.78;869.00;;;;;;;18.35;69.31;101633.59;696914;28;111806;-63
2022/08/30 01:12:28;;;;;;;928.05;865.50;;;;;;;18.37;69.53;101645.16;700227;28;46266;-63
2022/08/30 01:12:50;;;;;;;937.95;875.08;;;;;;;18.37;69.57;101641.59;698771;28;69382;-63
2022/08/30 01:13:12;;;;;;;947.95;884.65;;;;;;;18.35;69.63;101650.00;695448;28;23721;-64
2022/08/30 01:13:35;;;;;;;948.78;885.53;;;;;;;18.37;69.47;101644.31;694647;28;46424;-64
2022/08/30 01:13:58;;;;;;;931.28;868.63;;;;;;;18.36;69.59;101642.63;693723;28;69191;-63
2022/08/30 01:14:20;;;;;;;938.03;875.03;;;;;;;18.34;69.59;101650.22;693015;28;90706;-64
2022/08/30 01:14:42;;;;;;;937.58;874.65;;;;;;;18.34;69.62;101650.22;696810;28;46329;-64
2022/08/30 01:15:05;;;;;;;944.13;880.97;;;;;;;18.34;69.61;101650.22;697609;28;22233;-64
2022/08/30 01:15:27;;;;;;;937.45;874.47;;;;;;;18.34;69.62;101639.25;695320;28;91932;-64
2022/08/30 01:15:49;;;;;;;933.28;870.63;;;;;;;18.32;69.68;101636.75;697991;28;21525;-63
2022/08/30 01:16:10;;;;;;;937.75;874.70;;;;;;;18.34;69.59;101644.75;697058;28;45129;-63
2022/08/30 01:16:34;;;;;;;950.92;887.58;;;;;;;18.34;69.76;101642.84;697468;28;46255;-64
2022/08/30 01:16:56;;;;;;;944.47;881.20;;;;;;;18.34;69.86;101642.00;695323;28;67465;-64
2022/08/30 01:17:19;;;;;;;946.10;882.45;;;;;;;18.35;69.49;101650.00;695656;28;65641;-64
2022/08/30 01:17:40;;;;;;;938.15;875.22;;;;;;;18.35;69.71;101643.66;697063;28;44164;-64
2022/08/30 01:18:03;;;;;;;941.53;878.63;;;;;;;18.34;69.46;101644.75;699752;28;46307;-64
2022/08/30 01:18:24;;;;;;;938.83;875.93;;;;;;;18.36;69.58;101645.38;699078;28;69359;-64
2022/08/30 01:18:46;;;;;;;931.97;869.40;;;;;;;18.36;69.44;101643.47;700030;28;45106;-63
2022/08/30 01:19:12;;;;;;;924.97;862.78;;;;;;;18.37;69.79;101652.53;700743;28;21533;-63
2022/08/30 01:19:38;;;;;;;943.13;880.20;;;;;;;18.36;69.47;101640.72;696259;28;137945;-63
2022/08/30 01:20:03;;;;;;;943.53;880.45;;;;;;;18.34;69.63;101634.63;696946;28;136191;-63
2022/08/30 01:20:28;;;;;;;946.30;883.10;;;;;;;18.36;69.70;101643.47;697623;28;115564;-64
2022/08/30 01:20:53;;;;;;;934.78;872.03;;;;;;;18.34;69.64;101647.47;697785;28;114986;-63
2022/08/30 01:21:20;;;;;;;930.92;868.08;;;;;;;18.34;69.79;101640.09;695102;28;115076;-63
2022/08/30 01:21:45;;;;;;;937.05;874.10;;;;;;;18.37;69.88;101642.41;693457;28;136151;-63
2022/08/30 01:22:17;;;;;;;943.67;880.45;;;;;;;18.35;69.99;101638.19;693276;28;135640;-64
2022/08/30 01:22:42;;;;;;;941.55;878.55;;;;;;;18.37;69.87;101641.59;694110;28;135815;-63
2022/08/30 01:23:08;;;;;;;949.30;885.92;;;;;;;18.41;69.86;101644.75;697700;28;115460;-63
2022/08/30 01:23:40;;;;;;;943.70;880.50;;;;;;;18.42;69.39;101646.44;699688;28;58601;-63
2022/08/30 01:24:02;;;;;;;958.25;894.55;;;;;;;18.42;69.63;101647.28;700673;28;28741;-64
2022/08/30 01:24:23;;;;;;;947.90;884.55;;;;;;;18.43;69.34;101639.91;700116;28;33337;-63
2022/08/30 01:24:46;;;;;;;923.22;860.83;;;;;;;18.42;69.19;101643.72;697860;28;22440;-63
2022/08/30 01:25:09;;;;;;;926.42;863.75;;;;;;;18.44;69.35;101647.06;697131;28;45905;-64
2022/08/30 01:25:30;;;;;;;944.83;881.60;;;;;;;18.42;69.44;101640.97;696428;28;69446;-64
2022/08/30 01:25:53;;;;;;;957.28;893.60;;;;;;;18.41;69.31;101642.84;697934;28;25616;-63
2022/08/30 01:26:16;;;;;;;932.65;869.90;;;;;;;18.42;69.28;101647.28;692626;28;46984;-64
2022/08/30 01:26:38;;;;;;;936.70;873.83;;;;;;;18.42;69.20;101646.44;693594;28;92363;-63
2022/08/30 01:26:59;;;;;;;943.38;879.90;;;;;;;18.42;69.46;101646.44;695552;28;45855;-63
2022/08/30 01:27:21;;;;;;;937.08;873.75;;;;;;;18.42;69.54;101649.19;697818;28;22397;-63
2022/08/30 01:27:55;;;;;;;938.00;875.00;;;;;;;18.42;69.54;101638.22;697354;28;46290;-63
2022/08/30 01:28:20;;;;;;;933.22;870.47;;;;;;;18.42;69.53;101650.00;691572;28;137530;-63
2022/08/30 01:28:42;;;;;;;929.17;866.58;;;;;;;18.45;69.55;101649.59;692239;28;115018;-63
2022/08/30 01:29:05;;;;;;;940.97;877.95;;;;;;;18.46;69.50;101650.44;695424;28;23493;-64
2022/08/30 01:29:28;;;;;;;929.78;867.05;;;;;;;18.45;69.24;101652.31;692957;28;92278;-63
2022/08/30 01:29:50;;;;;;;942.00;879.00;;;;;;;18.44;69.55;101647.06;693849;28;69487;-63
2022/08/30 01:30:12;;;;;;;938.28;875.28;;;;;;;18.46;69.41;101647.69;694553;28;44464;-63
2022/08/30 01:30:37;;;;;;;933.38;870.55;;;;;;;18.47;69.42;101650.22;694413;28;46386;-64
2022/08/30 01:30:58;;;;;;;935.92;873.08;;;;;;;18.46;69.20;101640.31;694627;28;114919;-63
2022/08/30 01:31:20;;;;;;;943.90;880.83;;;;;;;18.44;69.04;101647.06;699343;28;906;-64
2022/08/30 01:31:42;;;;;;;939.90;877.10;;;;;;;18.40;69.18;101638.44;696980;28;69494;-63
2022/08/30 01:32:05;;;;;;;946.00;882.75;;;;;;;18.41;69.04;101648.31;695643;28;66431;-63
2022/08/30 01:32:27;;;;;;;942.88;879.80;;;;;;;18.40;68.96;101645.78;694726;28;69608;-63
2022/08/30 01:32:51;;;;;;;942.58;879.60;;;;;;;18.38;69.09;101651.47;694123;28;67519;-63
2022/08/30 01:33:14;;;;;;;929.83;867.25;;;;;;;18.35;69.15;101650.00;696858;28;69398;-64
2022/08/30 01:33:36;;;;;;;935.20;872.65;;;;;;;18.34;68.76;101653.78;696947;28;69451;-64
2022/08/30 01:33:57;;;;;;;936.70;874.05;;;;;;;18.33;69.18;101645.78;699905;28;45235;-64
2022/08/30 01:34:19;;;;;;;952.85;889.55;;;;;;;18.28;69.19;101643.66;695642;28;20225;-64
2022/08/30 01:34:41;;;;;;;949.90;886.80;;;;;;;18.29;69.35;101649.97;695000;28;46306;-63
2022/08/30 01:35:02;;;;;;;950.35;887.17;;;;;;;18.25;69.35;101649.53;700124;28;46368;-64
2022/08/30 01:35:25;;;;;;;949.35;886.20;;;;;;;18.27;69.58;101649.34;701813;28;961;-64
2022/08/30 01:35:51;;;;;;;936.40;873.58;;;;;;;18.27;69.68;101646.59;699421;28;46312;-64
2022/08/30 01:36:16;;;;;;;942.03;878.92;;;;;;;18.27;69.88;101652.91;696326;28;161040;-63
2022/08/30 01:36:41;;;;;;;944.10;881.03;;;;;;;18.28;69.70;101649.13;698011;28;114241;-63
2022/08/30 01:37:02;;;;;;;952.53;888.65;;;;;;;18.30;69.58;101646.19;695565;28;134839;-64
2022/08/30 01:37:26;;;;;;;943.95;880.42;;;;;;;18.31;69.52;101650.63;699462;28;1393;-63
2022/08/30 01:37:48;;;;;;;949.03;885.85;;;;;;;18.31;69.67;101653.34;699242;28;909;-64
2022/08/30 01:38:12;;;;;;;947.10;883.85;;;;;;;18.30;69.46;101641.53;697483;28;44945;-64
2022/08/30 01:38:35;;;;;;;941.55;878.50;;;;;;;18.32;69.53;101647.69;698618;28;14661;-63
2022/08/30 01:38:57;;;;;;;944.95;881.83;;;;;;;18.32;69.59;101652.28;693502;28;67463;-63
2022/08/30 01:39:19;;;;;;;939.25;876.15;;;;;;;18.32;69.46;101644.94;694646;28;44192;-64
2022/08/30 01:39:42;;;;;;;953.58;890.17;;;;;;;18.32;69.43;101653.16;693745;28;69186;-64
2022/08/30 01:40:05;;;;;;;950.75;887.50;;;;;;;18.31;69.35;101643.25;695398;28;46262;-64
2022/08/30 01:40:26;;;;;;;928.05;865.55;;;;;;;18.31;69.45;101648.72;696872;28;67482;-64
2022/08/30 01:40:47;;;;;;;939.80;876.83;;;;;;;18.29;69.43;101648.09;698162;28;22465;-64
2022/08/30 01:41:14;;;;;;;944.33;881.13;;;;;;;18.29;69.52;101645.34;697669;28;45231;-64
2022/08/30 01:41:35;;;;;;;948.42;885.08;;;;;;;18.30;69.41;101640.72;694379;28;137854;-64
2022/08/30 01:41:57;;;;;;;951.45;888.13;;;;;;;18.28;69.46;101643.66;696846;28;44385;-64
2022/08/30 01:42:19;;;;;;;947.15;883.97;;;;;;;18.28;69.55;101648.28;698666;28;22397;-64